Time;durP1;ratioP1;P1;durP2;ratioP2;P2;SDS_P1;SDS_P2;PMS_P1;PMS_P2;Temp;Humidity;BMP_temperature;BMP_pressure;BME280_temperature;BME280_humidity;BME280_pressure;Samples;Min_cycle;Max_cycle;Signal;HPM_P1;HPM_P2
2023/03/23 00:00:44;;;;;;;4.28;2.50;;;14.50;91.30;;;;;;5075335;28;20064;-71
2023/03/23 00:03:09;;;;;;;3.70;2.47;;;14.50;91.40;;;;;;5074065;28;20078;-71
2023/03/23 00:05:36;;;;;;;4.75;2.92;;;14.50;91.40;;;;;;5097997;28;20059;-71
2023/03/23 00:08:03;;;;;;;3.28;2.20;;;14.40;91.40;;;;;;5098535;28;20088;-71
2023/03/23 00:10:32;;;;;;;3.67;2.25;;;14.40;91.50;;;;;;5107622;28;20138;-71
2023/03/23 00:13:02;;;;;;;6.53;2.47;;;14.40;91.50;;;;;;5075140;28;20024;-70
2023/03/23 00:15:32;;;;;;;5.93;2.45;;;14.40;91.60;;;;;;5081248;28;20036;-70
2023/03/23 00:18:04;;;;;;;4.40;2.63;;;14.30;91.60;;;;;;5107812;28;20051;-71
2023/03/23 00:20:39;;;;;;;4.82;2.67;;;14.30;91.60;;;;;;5105117;28;20074;-70
2023/03/23 00:23:06;;;;;;;4.78;2.83;;;14.30;91.70;;;;;;5095933;28;20520;-70
2023/03/23 00:25:32;;;;;;;3.38;2.10;;;14.20;91.70;;;;;;5091387;28;20031;-70
2023/03/23 00:27:58;;;;;;;3.25;2.20;;;14.20;91.70;;;;;;5105103;28;20028;-70
2023/03/23 00:30:23;;;;;;;3.97;2.67;;;14.10;91.80;;;;;;5113791;28;20039;-70
2023/03/23 00:32:50;;;;;;;3.78;2.63;;;14.20;91.80;;;;;;5093413;28;20032;-70
2023/03/23 00:35:17;;;;;;;3.03;2.03;;;14.20;91.90;;;;;;5093366;28;20297;-71
2023/03/23 00:37:43;;;;;;;4.72;2.55;;;14.10;91.90;;;;;;5094250;28;20019;-69
2023/03/23 00:40:10;;;;;;;3.78;2.30;;;14.10;91.90;;;;;;5113813;28;20036;-71
2023/03/23 00:42:36;;;;;;;4.00;2.30;;;14.00;91.90;;;;;;5104397;28;20046;-71
2023/03/23 00:45:02;;;;;;;3.65;2.10;;;14.10;92.00;;;;;;5113604;28;20023;-71
2023/03/23 00:47:28;;;;;;;4.47;2.65;;;14.00;92.00;;;;;;5102608;28;20034;-70
2023/03/23 00:49:56;;;;;;;4.03;2.40;;;14.00;92.00;;;;;;5092879;28;20027;-71
2023/03/23 00:52:21;;;;;;;4.53;2.40;;;14.00;92.00;;;;;;5100469;28;20031;-70
2023/03/23 00:54:47;;;;;;;5.40;2.42;;;14.00;92.10;;;;;;5098827;28;20479;-71
2023/03/23 00:57:13;;;;;;;4.05;2.15;;;14.00;92.10;;;;;;5102985;28;20439;-71
2023/03/23 00:59:38;;;;;;;4.38;2.33;;;13.90;92.00;;;;;;5109985;28;20533;-70
2023/03/23 01:02:04;;;;;;;3.97;2.20;;;13.90;92.00;;;;;;5100777;28;20020;-70
2023/03/23 01:04:31;;;;;;;2.90;2.10;;;13.90;92.10;;;;;;5099568;28;20422;-70
2023/03/23 01:07:00;;;;;;;2.90;1.92;;;13.90;92.10;;;;;;5095695;28;20271;-70
2023/03/23 01:09:26;;;;;;;2.65;1.80;;;13.80;92.10;;;;;;5092356;28;20027;-70
2023/03/23 01:11:55;;;;;;;2.92;1.90;;;13.80;92.10;;;;;;5096880;28;20035;-70
2023/03/23 01:14:20;;;;;;;2.85;1.88;;;13.80;92.10;;;;;;5091359;28;20035;-70
2023/03/23 01:16:46;;;;;;;3.13;2.10;;;13.80;92.10;;;;;;5094047;28;20475;-70
2023/03/23 01:19:12;;;;;;;5.35;2.35;;;13.70;92.20;;;;;;5112312;28;20088;-71
2023/03/23 01:21:38;;;;;;;3.35;2.03;;;13.70;92.20;;;;;;5105924;27;20557;-71
2023/03/23 01:24:04;;;;;;;3.70;2.30;;;13.70;92.20;;;;;;5092247;28;20032;-71
2023/03/23 01:26:29;;;;;;;3.20;1.90;;;13.70;92.60;;;;;;5091668;28;20103;-71
2023/03/23 01:28:55;;;;;;;3.33;2.08;;;13.70;92.40;;;;;;5098413;28;20126;-71
2023/03/23 01:31:26;;;;;;;4.70;2.17;;;13.60;92.30;;;;;;5078293;28;20024;-71
2023/03/23 01:33:52;;;;;;;2.97;1.92;;;13.60;92.40;;;;;;5071726;28;20028;-71
2023/03/23 01:36:21;;;;;;;3.72;2.20;;;13.60;92.50;;;;;;5077325;28;20027;-71
2023/03/23 01:38:48;;;;;;;3.30;2.10;;;13.60;92.50;;;;;;5091698;28;20035;-71
2023/03/23 01:41:16;;;;;;;3.10;1.95;;;13.60;92.50;;;;;;5091348;28;20617;-71
2023/03/23 01:44:01;;;;;;;2.90;2.10;;;13.60;92.60;;;;;;5108544;28;20039;-71
2023/03/23 01:46:34;;;;;;;3.38;2.22;;;13.60;92.90;;;;;;5092682;28;20028;-70
2023/03/23 01:49:09;;;;;;;4.28;2.10;;;13.50;92.60;;;;;;5071789;28;20499;-70
2023/03/23 01:51:40;;;;;;;3.55;2.20;;;13.50;92.90;;;;;;5090470;28;20083;-70
2023/03/23 01:54:08;;;;;;;4.30;2.10;;;13.50;92.70;;;;;;5111092;28;20070;-70
2023/03/23 01:56:40;;;;;;;5.70;2.25;;;13.50;92.70;;;;;;5091100;28;20039;-70
2023/03/23 01:59:08;;;;;;;4.30;2.22;;;13.50;92.80;;;;;;5081041;28;20106;-70
2023/03/23 02:01:38;;;;;;;2.80;2.00;;;13.50;92.80;;;;;;5089641;28;20036;-70
2023/03/23 02:04:05;;;;;;;3.15;1.90;;;13.40;92.80;;;;;;5097983;28;20054;-70
2023/03/23 02:06:31;;;;;;;3.08;2.10;;;13.40;92.90;;;;;;5071198;28;20029;-70
2023/03/23 02:08:58;;;;;;;3.85;2.30;;;13.40;92.90;;;;;;5101255;28;20398;-70
2023/03/23 02:11:23;;;;;;;4.28;1.90;;;13.40;93.00;;;;;;5111324;28;20062;-70
2023/03/23 02:13:50;;;;;;;6.50;2.42;;;13.40;93.00;;;;;;5088931;28;20069;-70
2023/03/23 02:16:21;;;;;;;4.38;2.17;;;13.40;93.10;;;;;;5091832;28;20020;-70
2023/03/23 02:19:03;;;;;;;4.25;2.35;;;13.40;92.90;;;;;;5090802;28;20396;-70
2023/03/23 02:22:14;;;;;;;4.85;2.40;;;13.40;92.90;;;;;;5091675;28;20093;-70
2023/03/23 02:25:15;;;;;;;4.85;2.45;;;13.40;93.00;;;;;;5065821;28;20427;-71
2023/03/23 02:28:36;;;;;;;3.08;1.75;;;13.40;93.00;;;;;;5092610;28;20043;-71
2023/03/23 02:31:52;;;;;;;3.05;2.05;;;13.40;93.00;;;;;;5042848;28;20040;-71
2023/03/23 02:34:20;;;;;;;;;;;13.50;92.90;;;;;;5057555;28;20032;-71
2023/03/23 02:37:07;;;;;;;3.47;2.25;;;13.50;92.90;;;;;;5092979;28;19966;-71
2023/03/23 02:39:41;;;;;;;4.90;2.33;;;13.40;93.00;;;;;;5102674;28;20028;-71
2023/03/23 02:42:10;;;;;;;4.57;2.40;;;13.40;93.00;;;;;;5093261;28;20355;-70
2023/03/23 02:44:41;;;;;;;3.05;2.10;;;13.40;93.00;;;;;;5091759;28;20024;-71
2023/03/23 02:47:14;;;;;;;3.75;2.30;;;13.40;93.10;;;;;;5090530;28;20040;-71
2023/03/23 02:49:42;;;;;;;2.90;1.92;;;13.50;93.10;;;;;;5089941;28;20031;-71
2023/03/23 02:52:13;;;;;;;3.03;2.05;;;13.50;93.10;;;;;;5101525;28;20032;-70
2023/03/23 02:54:42;;;;;;;4.38;2.20;;;13.50;93.10;;;;;;5099545;28;20024;-71
2023/03/23 02:57:09;;;;;;;4.10;2.30;;;13.60;93.20;;;;;;5075613;28;20429;-71
2023/03/23 02:59:35;;;;;;;3.80;2.20;;;13.60;93.30;;;;;;5094444;28;20495;-71
2023/03/23 03:02:09;;;;;;;5.95;2.30;;;13.60;93.30;;;;;;5104908;28;20035;-71
2023/03/23 03:04:40;;;;;;;3.00;1.83;;;13.70;93.40;;;;;;5078980;28;20029;-71
2023/03/23 03:07:48;;;;;;;4.60;2.47;;;13.70;93.40;;;;;;5092223;28;20365;-71
2023/03/23 03:10:25;;;;;;;2.60;2.00;;;13.70;93.50;;;;;;5095186;28;20571;-71
2023/03/23 03:13:12;;;;;;;4.45;3.05;;;13.70;93.60;;;;;;5096796;28;20114;-71
2023/03/23 03:15:50;;;;;;;4.10;2.50;;;13.70;93.60;;;;;;5106365;28;20027;-71
2023/03/23 03:18:58;;;;;;;3.08;2.20;;;13.70;93.60;;;;;;5083234;28;20042;-71
2023/03/23 03:21:27;;;;;;;4.18;2.28;;;13.70;93.70;;;;;;5083873;28;20075;-71
2023/03/23 03:23:56;;;;;;;2.63;1.98;;;13.80;93.70;;;;;;5091208;28;20122;-71
2023/03/23 03:26:26;;;;;;;3.40;2.28;;;13.80;93.70;;;;;;5094444;28;20062;-71
2023/03/23 03:28:53;;;;;;;2.65;2.08;;;13.80;93.70;;;;;;5096277;28;20492;-71
2023/03/23 03:31:25;;;;;;;3.70;1.95;;;13.80;93.70;;;;;;5100807;28;20031;-71
2023/03/23 03:33:51;;;;;;;4.22;2.22;;;13.80;93.70;;;;;;5112664;28;20360;-71
2023/03/23 03:36:21;;;;;;;2.85;1.95;;;13.90;93.80;;;;;;5104750;28;20085;-71
2023/03/23 03:38:49;;;;;;;3.80;2.10;;;13.90;93.80;;;;;;5107592;28;20532;-71
2023/03/23 03:41:16;;;;;;;3.92;2.58;;;13.90;93.80;;;;;;5093618;28;20040;-70
2023/03/23 03:43:42;;;;;;;4.60;2.30;;;13.90;93.80;;;;;;5093515;28;20036;-70
2023/03/23 03:46:07;;;;;;;4.05;1.90;;;13.90;93.80;;;;;;5094411;28;20036;-71
2023/03/23 03:48:33;;;;;;;3.35;2.08;;;13.90;93.80;;;;;;5094038;28;20477;-69
2023/03/23 03:51:00;;;;;;;3.30;2.15;;;13.90;93.80;;;;;;5104171;28;20059;-71
2023/03/23 03:53:26;;;;;;;4.28;2.50;;;13.90;93.80;;;;;;5113670;28;20024;-71
2023/03/23 03:55:55;;;;;;;2.80;2.03;;;13.90;93.90;;;;;;5093612;28;20038;-70
2023/03/23 03:58:22;;;;;;;4.20;2.42;;;13.90;94.00;;;;;;5111667;28;20486;-71
2023/03/23 04:00:48;;;;;;;4.05;2.38;;;13.90;94.10;;;;;;5096528;28;20142;-71
2023/03/23 04:03:14;;;;;;;5.25;2.30;;;13.90;94.20;;;;;;5093098;28;20035;-72
2023/03/23 04:05:41;;;;;;;4.00;2.08;;;14.00;94.30;;;;;;5096682;28;20483;-71
2023/03/23 04:08:07;;;;;;;3.30;2.35;;;14.00;94.50;;;;;;5093482;28;20028;-70
2023/03/23 04:10:33;;;;;;;3.85;2.40;;;14.00;94.30;;;;;;5102717;28;20031;-70
2023/03/23 04:12:59;;;;;;;2.58;2.00;;;14.00;94.30;;;;;;5107008;28;20411;-71
2023/03/23 04:15:25;;;;;;;3.45;2.20;;;14.00;94.30;;;;;;5102291;28;20099;-71
2023/03/23 04:17:51;;;;;;;3.25;2.40;;;14.00;94.30;;;;;;5105755;28;20024;-71
2023/03/23 04:20:17;;;;;;;4.85;2.67;;;14.00;94.40;;;;;;5100655;28;20039;-71
2023/03/23 04:22:51;;;;;;;3.47;2.22;;;14.00;94.40;;;;;;5111271;28;20031;-71
2023/03/23 04:25:20;;;;;;;5.15;2.40;;;14.10;94.50;;;;;;5103404;28;20036;-71
2023/03/23 04:27:52;;;;;;;3.67;2.60;;;14.10;94.50;;;;;;5102631;28;20028;-70
2023/03/23 04:30:19;;;;;;;4.93;2.00;;;14.10;94.60;;;;;;5092656;28;20387;-70
2023/03/23 04:32:45;;;;;;;7.80;2.60;;;14.00;94.60;;;;;;5092464;28;20020;-71
2023/03/23 04:35:13;;;;;;;3.25;2.10;;;14.00;94.60;;;;;;5094591;28;20036;-71
2023/03/23 04:37:40;;;;;;;4.82;2.60;;;14.00;94.70;;;;;;5092627;28;20020;-71
2023/03/23 04:40:10;;;;;;;2.83;2.10;;;14.00;94.70;;;;;;5098660;28;20092;-71
2023/03/23 04:42:37;;;;;;;3.22;2.25;;;14.00;94.70;;;;;;5103547;28;20027;-71
2023/03/23 04:45:05;;;;;;;5.03;2.45;;;14.00;94.80;;;;;;5099079;28;20037;-70
2023/03/23 04:47:34;;;;;;;4.25;2.90;;;14.00;94.80;;;;;;5102778;28;20028;-70
2023/03/23 04:50:00;;;;;;;3.10;2.22;;;14.00;94.90;;;;;;5097503;28;20104;-70
2023/03/23 04:52:28;;;;;;;3.75;2.20;;;14.00;94.90;;;;;;5099721;28;20035;-71
2023/03/23 04:54:55;;;;;;;4.25;2.42;;;14.00;95.00;;;;;;5095560;28;20054;-68
2023/03/23 04:57:22;;;;;;;3.13;2.20;;;14.00;95.00;;;;;;5094109;28;20032;-68
2023/03/23 04:59:48;;;;;;;5.20;2.50;;;14.00;94.90;;;;;;5101658;28;20499;-69
2023/03/23 05:02:14;;;;;;;3.63;2.58;;;14.00;95.00;;;;;;5103311;28;20035;-69
2023/03/23 05:04:40;;;;;;;4.72;2.50;;;14.00;95.00;;;;;;5091426;28;20055;-69
2023/03/23 05:07:07;;;;;;;3.90;2.45;;;14.00;95.00;;;;;;5099998;28;20382;-69
2023/03/23 05:09:34;;;;;;;4.53;2.08;;;14.10;95.00;;;;;;5090439;28;20460;-69
2023/03/23 05:12:08;;;;;;;2.60;2.30;;;14.10;95.00;;;;;;5091480;28;20024;-69
2023/03/23 05:14:34;;;;;;;3.63;2.42;;;14.10;95.00;;;;;;5089570;28;20031;-68
2023/03/23 05:17:00;;;;;;;3.80;2.83;;;14.00;95.10;;;;;;5091861;28;20387;-69
2023/03/23 05:19:27;;;;;;;4.35;2.78;;;14.00;95.30;;;;;;5093466;28;20091;-70
2023/03/23 05:21:56;;;;;;;4.40;2.45;;;14.00;95.50;;;;;;5090444;28;20047;-70
2023/03/23 05:24:22;;;;;;;2.85;2.00;;;14.00;95.70;;;;;;5090408;28;20066;-69
2023/03/23 05:26:48;;;;;;;3.85;2.70;;;13.90;95.90;;;;;;5089352;28;20024;-69
2023/03/23 05:29:15;;;;;;;3.45;2.40;;;13.90;96.00;;;;;;5091597;28;20028;-69
2023/03/23 05:31:41;;;;;;;3.63;2.17;;;13.90;96.40;;;;;;5094195;28;20027;-69
2023/03/23 05:34:06;;;;;;;4.47;2.40;;;13.90;96.30;;;;;;5092268;28;20031;-69
2023/03/23 05:36:32;;;;;;;3.70;2.40;;;13.90;96.40;;;;;;5090551;28;20533;-69
2023/03/23 05:38:59;;;;;;;4.97;2.35;;;13.90;96.40;;;;;;5089443;28;20457;-69
2023/03/23 05:41:25;;;;;;;3.22;2.10;;;13.80;96.40;;;;;;5097341;28;20059;-69
2023/03/23 05:43:51;;;;;;;3.30;2.08;;;13.90;96.40;;;;;;5087408;28;20024;-69
2023/03/23 05:46:17;;;;;;;3.05;2.08;;;13.90;96.40;;;;;;5092241;28;20494;-69
2023/03/23 05:48:43;;;;;;;2.45;1.80;;;13.90;96.40;;;;;;5095198;28;20032;-70
2023/03/23 05:51:09;;;;;;;2.85;2.00;;;13.80;96.40;;;;;;5098664;28;20035;-70
2023/03/23 05:53:35;;;;;;;3.65;2.15;;;13.80;96.50;;;;;;5098911;28;20035;-70
2023/03/23 05:56:01;;;;;;;3.30;2.20;;;13.80;96.50;;;;;;5089808;28;20387;-70
2023/03/23 05:58:27;;;;;;;3.05;2.05;;;13.90;96.70;;;;;;5083700;28;20067;-70
2023/03/23 06:00:53;;;;;;;5.93;2.10;;;13.70;96.70;;;;;;5081883;28;20036;-70
2023/03/23 06:03:19;;;;;;;3.72;1.90;;;13.70;96.80;;;;;;5092112;28;20028;-70
2023/03/23 06:05:45;;;;;;;4.72;2.15;;;13.80;97.00;;;;;;5088508;28;20035;-70
2023/03/23 06:08:11;;;;;;;5.38;1.77;;;13.70;97.10;;;;;;5091563;28;20027;-70
2023/03/23 06:10:37;;;;;;;3.28;1.85;;;13.70;97.20;;;;;;5105629;28;20110;-70
2023/03/23 06:13:05;;;;;;;4.03;1.80;;;13.70;97.40;;;;;;5089459;28;20044;-70
2023/03/23 06:15:32;;;;;;;4.60;2.03;;;13.70;97.50;;;;;;5098252;28;20023;-70
2023/03/23 06:18:02;;;;;;;4.18;1.90;;;13.60;97.60;;;;;;5086958;28;20152;-70
2023/03/23 06:20:28;;;;;;;3.05;1.90;;;13.60;97.80;;;;;;5091744;28;20043;-69
2023/03/23 06:22:55;;;;;;;3.42;2.15;;;13.60;97.90;;;;;;5088686;28;20020;-69
2023/03/23 06:25:22;;;;;;;3.88;1.80;;;13.50;98.30;;;;;;5106053;28;20043;-70
2023/03/23 06:27:48;;;;;;;2.92;1.60;;;13.60;98.30;;;;;;5089837;28;20028;-70
2023/03/23 06:30:16;;;;;;;2.53;1.73;;;13.50;98.40;;;;;;5095354;28;20115;-70
2023/03/23 06:32:45;;;;;;;3.60;2.30;;;13.40;98.50;;;;;;5091582;28;20107;-70
2023/03/23 06:35:11;;;;;;;3.28;1.85;;;13.40;98.80;;;;;;5082662;28;20036;-70
2023/03/23 06:37:38;;;;;;;3.15;1.70;;;13.40;98.80;;;;;;5096160;28;20016;-69
2023/03/23 06:40:08;;;;;;;6.07;2.00;;;13.40;98.90;;;;;;5091325;28;20072;-69
2023/03/23 06:42:33;;;;;;;3.20;2.05;;;13.40;99.00;;;;;;5093883;28;20056;-70
2023/03/23 06:45:00;;;;;;;2.78;1.88;;;13.40;99.10;;;;;;5099471;28;20601;-69
2023/03/23 06:47:29;;;;;;;4.32;2.03;;;13.40;99.50;;;;;;5092543;28;20063;-69
2023/03/23 06:49:55;;;;;;;2.38;1.67;;;13.40;99.40;;;;;;5088063;28;20035;-69
2023/03/23 06:52:22;;;;;;;2.88;1.95;;;13.40;99.50;;;;;;5085378;28;20085;-69
2023/03/23 06:54:48;;;;;;;2.65;1.88;;;13.40;99.60;;;;;;5092503;28;20019;-70
2023/03/23 06:57:15;;;;;;;3.67;2.10;;;13.40;99.80;;;;;;5108193;28;20020;-70
2023/03/23 06:59:41;;;;;;;3.45;1.70;;;13.40;99.90;;;;;;5075084;28;20044;-70
2023/03/23 07:02:09;;;;;;;4.65;2.30;;;13.40;99.90;;;;;;5100979;28;20138;-70
2023/03/23 07:04:35;;;;;;;3.38;2.30;;;13.40;99.90;;;;;;5086531;28;20029;-70
2023/03/23 07:07:01;;;;;;;3.50;1.80;;;13.50;99.90;;;;;;5107370;28;20541;-69
2023/03/23 07:09:27;;;;;;;3.38;2.10;;;13.50;99.90;;;;;;5095212;28;20027;-70
2023/03/23 07:11:52;;;;;;;4.00;1.90;;;13.50;99.90;;;;;;5092788;28;20028;-70
2023/03/23 07:14:19;;;;;;;3.67;1.90;;;13.50;99.90;;;;;;5104312;28;20032;-73
2023/03/23 07:16:45;;;;;;;3.85;2.33;;;13.60;99.90;;;;;;5111831;28;20032;-69
2023/03/23 07:19:11;;;;;;;5.28;2.25;;;13.50;99.90;;;;;;5095023;28;20387;-71
2023/03/23 07:21:36;;;;;;;3.33;1.88;;;13.60;99.90;;;;;;5092690;28;21103;-69
2023/03/23 07:24:02;;;;;;;3.15;1.90;;;13.60;99.90;;;;;;5094484;28;20121;-69
2023/03/23 07:26:28;;;;;;;3.67;2.50;;;13.60;99.90;;;;;;5096764;28;20100;-70
2023/03/23 07:28:53;;;;;;;3.83;2.03;;;13.60;99.90;;;;;;5112837;27;20034;-70
2023/03/23 07:31:19;;;;;;;3.42;2.33;;;13.60;99.90;;;;;;5103926;28;20017;-70
2023/03/23 07:33:44;;;;;;;3.78;2.30;;;13.60;99.90;;;;;;5086111;28;20154;-70
2023/03/23 07:36:10;;;;;;;5.85;2.22;;;13.60;99.90;;;;;;5105910;28;20023;-70
2023/03/23 07:38:36;;;;;;;3.38;1.88;;;13.60;99.90;;;;;;5097058;28;20055;-69
2023/03/23 07:41:02;;;;;;;4.03;2.13;;;13.70;99.90;;;;;;5103513;28;20042;-70
2023/03/23 07:43:28;;;;;;;3.83;2.40;;;13.70;99.90;;;;;;5094716;28;20098;-70
2023/03/23 07:45:54;;;;;;;3.70;2.20;;;13.60;99.90;;;;;;5098280;28;20103;-69
2023/03/23 07:48:20;;;;;;;5.38;2.42;;;13.70;99.90;;;;;;5100070;28;20027;-69
2023/03/23 07:50:46;;;;;;;3.63;2.25;;;13.70;99.90;;;;;;5101515;28;20388;-69
2023/03/23 07:53:11;;;;;;;3.17;1.85;;;13.70;99.90;;;;;;5111604;28;20034;-70
2023/03/23 07:55:37;;;;;;;3.80;2.60;;;13.70;99.90;;;;;;5082080;28;20024;-69
2023/03/23 07:58:03;;;;;;;2.85;2.13;;;13.80;99.90;;;;;;5086186;28;20015;-70
2023/03/23 08:00:29;;;;;;;3.67;2.20;;;13.80;99.90;;;;;;5099536;28;20511;-69
2023/03/23 08:02:56;;;;;;;4.22;2.22;;;13.80;99.90;;;;;;5092913;28;20031;-70
2023/03/23 08:05:25;;;;;;;3.67;2.40;;;13.80;99.90;;;;;;5096203;28;20081;-70
2023/03/23 08:07:53;;;;;;;4.65;2.65;;;13.80;99.90;;;;;;5105638;28;20062;-70
2023/03/23 08:10:18;;;;;;;3.15;2.17;;;13.90;99.90;;;;;;5093508;28;20391;-69
2023/03/23 08:12:46;;;;;;;3.50;2.17;;;13.90;99.90;;;;;;5102800;28;20021;-70
2023/03/23 08:15:14;;;;;;;3.60;2.28;;;13.90;99.90;;;;;;5098024;28;20032;-70
2023/03/23 08:17:41;;;;;;;4.47;2.67;;;13.90;99.90;;;;;;5100156;28;20471;-72
2023/03/23 08:20:12;;;;;;;3.65;2.17;;;14.00;99.90;;;;;;5103317;28;20345;-69
2023/03/23 08:22:39;;;;;;;4.53;2.42;;;14.00;99.90;;;;;;5095189;28;20485;-69
2023/03/23 08:25:07;;;;;;;3.95;2.22;;;14.10;99.90;;;;;;5105933;28;20475;-69
2023/03/23 08:27:33;;;;;;;4.32;2.17;;;14.10;99.90;;;;;;5095078;28;20031;-69
2023/03/23 08:29:59;;;;;;;4.03;2.38;;;14.10;99.90;;;;;;5092080;28;20019;-70
2023/03/23 08:32:25;;;;;;;4.00;2.33;;;14.10;99.90;;;;;;5100492;28;20052;-70
2023/03/23 08:34:52;;;;;;;4.15;2.80;;;14.10;99.90;;;;;;5088605;28;20536;-71
2023/03/23 08:37:17;;;;;;;3.78;2.70;;;14.10;99.90;;;;;;5080141;28;20114;-70
2023/03/23 08:39:43;;;;;;;3.05;2.22;;;14.10;99.90;;;;;;5092317;28;20074;-71
2023/03/23 08:42:10;;;;;;;3.60;2.00;;;14.20;99.90;;;;;;5096852;28;20074;-68
2023/03/23 08:44:36;;;;;;;4.93;2.45;;;14.20;99.90;;;;;;5096801;28;20028;-69
2023/03/23 08:47:04;;;;;;;4.90;2.28;;;14.20;99.90;;;;;;5088109;28;20103;-68
2023/03/23 08:49:32;;;;;;;3.05;2.00;;;14.30;99.90;;;;;;5087930;28;20024;-68
2023/03/23 08:51:58;;;;;;;4.55;2.60;;;14.20;99.90;;;;;;5089428;28;20027;-68
2023/03/23 08:54:24;;;;;;;4.28;2.30;;;14.20;99.90;;;;;;5106250;28;20066;-68
2023/03/23 08:56:50;;;;;;;5.28;2.47;;;14.30;99.90;;;;;;5087497;28;20082;-68
2023/03/23 08:59:16;;;;;;;3.08;1.90;;;14.30;99.90;;;;;;5082188;28;20078;-69
2023/03/23 09:01:41;;;;;;;3.38;2.17;;;14.40;99.90;;;;;;5083813;28;20090;-69
2023/03/23 09:04:08;;;;;;;2.78;2.03;;;14.50;99.90;;;;;;5082886;28;20032;-69
2023/03/23 09:06:36;;;;;;;4.07;2.35;;;14.50;99.90;;;;;;5081460;28;20118;-69
2023/03/23 09:09:06;;;;;;;3.75;2.30;;;14.50;99.90;;;;;;5091710;28;20028;-68
2023/03/23 09:11:33;;;;;;;3.15;2.15;;;14.60;99.90;;;;;;5097425;28;20382;-69
2023/03/23 09:13:59;;;;;;;3.25;1.98;;;14.70;99.90;;;;;;5107631;28;20454;-68
2023/03/23 09:16:25;;;;;;;3.55;2.00;;;14.70;99.90;;;;;;5094459;28;20084;-69
2023/03/23 09:18:51;;;;;;;5.50;2.28;;;14.80;99.90;;;;;;5092771;28;20233;-69
2023/03/23 09:21:17;;;;;;;4.57;1.98;;;14.80;99.90;;;;;;5098212;28;20046;-69
2023/03/23 09:23:44;;;;;;;2.50;1.90;;;14.90;99.90;;;;;;5087284;28;20032;-68
2023/03/23 09:26:10;;;;;;;3.72;1.95;;;14.90;99.90;;;;;;5092912;28;21985;-70
2023/03/23 09:28:35;;;;;;;3.25;2.00;;;15.00;99.90;;;;;;5097410;28;20047;-69
2023/03/23 09:31:01;;;;;;;2.80;1.80;;;15.00;99.90;;;;;;5105816;28;20563;-68
2023/03/23 09:33:28;;;;;;;2.38;1.85;;;15.10;99.90;;;;;;5102455;28;20031;-69
2023/03/23 09:35:54;;;;;;;2.85;1.65;;;15.10;99.90;;;;;;5097604;28;20408;-69
2023/03/23 09:38:21;;;;;;;2.40;1.80;;;15.20;99.90;;;;;;5100959;28;20034;-69
2023/03/23 09:41:18;;;;;;;2.85;2.03;;;15.20;99.90;;;;;;5089891;28;20089;-69
2023/03/23 09:43:56;;;;;;;3.38;1.80;;;15.30;99.90;;;;;;5107567;28;20054;-69
2023/03/23 09:46:46;;;;;;;4.25;1.88;;;15.30;99.90;;;;;;5106041;28;20050;-68
2023/03/23 09:49:19;;;;;;;3.03;1.90;;;15.40;99.90;;;;;;5098329;28;20111;-68
2023/03/23 09:51:59;;;;;;;2.90;1.70;;;15.40;99.90;;;;;;5108699;28;20379;-69
2023/03/23 09:54:52;;;;;;;2.85;1.92;;;15.50;99.90;;;;;;5099685;28;20019;-69
2023/03/23 09:57:55;;;;;;;3.47;1.80;;;15.50;99.80;;;;;;5102199;28;20469;-69
2023/03/23 10:00:25;;;;;;;2.42;1.60;;;15.60;99.70;;;;;;5076720;28;20172;-68
2023/03/23 10:03:27;;;;;;;3.25;1.77;;;15.60;99.60;;;;;;5079250;28;20692;-68
2023/03/23 10:05:55;;;;;;;3.03;1.60;;;15.70;99.60;;;;;;5047322;28;20458;-68
2023/03/23 10:08:24;;;;;;;5.25;1.70;;;15.80;99.70;;;;;;5080847;28;20116;-68
2023/03/23 10:11:02;;;;;;;2.35;1.40;;;15.90;99.30;;;;;;5079770;28;20051;-69
2023/03/23 10:13:36;;;;;;;3.03;1.70;;;16.00;99.20;;;;;;5084579;28;20036;-69
2023/03/23 10:16:04;;;;;;;4.22;2.10;;;16.00;99.00;;;;;;5097136;28;20032;-68
2023/03/23 10:18:31;;;;;;;3.60;1.70;;;16.00;98.90;;;;;;5105829;28;20062;-69
2023/03/23 10:20:59;;;;;;;2.47;1.83;;;16.10;98.70;;;;;;5096491;28;20032;-69
2023/03/23 10:23:45;;;;;;;3.15;1.83;;;16.10;98.80;;;;;;5107476;28;20387;-68
2023/03/23 10:26:14;;;;;;;3.17;1.90;;;16.20;98.50;;;;;;5075831;28;20373;-68
2023/03/23 10:28:46;;;;;;;2.67;1.70;;;16.20;98.30;;;;;;5091030;28;20508;-69
2023/03/23 10:31:28;;;;;;;2.97;1.92;;;16.30;98.20;;;;;;5083628;28;20488;-69
2023/03/23 10:34:04;;;;;;;5.38;1.92;;;16.40;98.10;;;;;;5082601;28;20069;-69
2023/03/23 10:36:37;;;;;;;2.38;1.50;;;16.40;97.90;;;;;;5104029;28;20493;-68
2023/03/23 10:39:06;;;;;;;3.53;1.90;;;16.50;97.80;;;;;;5099209;28;20601;-69
2023/03/23 10:41:32;;;;;;;5.35;1.80;;;16.50;97.80;;;;;;5104417;28;20403;-69
2023/03/23 10:43:57;;;;;;;4.78;1.80;;;16.60;97.70;;;;;;5095509;28;20028;-69
2023/03/23 10:46:54;;;;;;;3.70;1.90;;;16.70;97.60;;;;;;5113635;28;20114;-69
2023/03/23 10:49:36;;;;;;;3.60;2.13;;;16.80;97.40;;;;;;5093807;28;20470;-69
2023/03/23 10:52:35;;;;;;;4.53;2.30;;;16.80;97.20;;;;;;5101629;28;20070;-69
2023/03/23 10:55:06;;;;;;;3.28;1.73;;;16.90;97.10;;;;;;5098634;28;20353;-69
2023/03/23 10:57:34;;;;;;;4.90;1.85;;;16.90;96.90;;;;;;5095562;28;20454;-69
2023/03/23 11:00:21;;;;;;;3.28;1.80;;;17.00;96.80;;;;;;5103100;28;20036;-69
2023/03/23 11:03:00;;;;;;;4.75;1.70;;;17.00;96.70;;;;;;5108346;28;20359;-69
2023/03/23 11:05:44;;;;;;;4.13;2.10;;;17.00;96.50;;;;;;5093355;28;20035;-69
2023/03/23 11:08:14;;;;;;;2.78;1.80;;;17.00;96.40;;;;;;5099322;28;20042;-70
2023/03/23 11:10:48;;;;;;;2.60;1.80;;;17.10;96.30;;;;;;5100717;28;20089;-69
2023/03/23 11:13:17;;;;;;;3.78;1.85;;;17.00;96.10;;;;;;5092505;28;20035;-69
2023/03/23 11:15:47;;;;;;;4.32;1.80;;;17.00;96.20;;;;;;5095624;28;20165;-69
2023/03/23 11:18:26;;;;;;;4.15;2.40;;;17.00;96.10;;;;;;5094542;28;20035;-69
2023/03/23 11:20:57;;;;;;;3.15;1.70;;;17.10;96.00;;;;;;5083675;28;20488;-70
2023/03/23 11:23:39;;;;;;;4.80;2.05;;;17.10;95.90;;;;;;5089391;28;20111;-69
2023/03/23 11:26:20;;;;;;;3.30;2.00;;;17.10;95.80;;;;;;5097400;28;20376;-69
2023/03/23 11:28:55;;;;;;;4.55;2.00;;;17.20;95.80;;;;;;5096624;28;20149;-69
2023/03/23 11:31:33;;;;;;;3.38;1.80;;;17.20;95.70;;;;;;5093755;28;20391;-70
2023/03/23 11:34:16;;;;;;;4.00;1.90;;;17.30;95.60;;;;;;5090839;28;20582;-69
2023/03/23 11:36:49;;;;;;;4.75;1.90;;;17.30;95.60;;;;;;5092064;28;20036;-70
2023/03/23 11:39:49;;;;;;;4.45;1.70;;;17.30;95.50;;;;;;5088988;28;20035;-70
2023/03/23 11:42:27;;;;;;;2.45;1.70;;;17.30;95.40;;;;;;5091335;28;20582;-69
2023/03/23 11:44:54;;;;;;;4.05;1.83;;;17.40;95.30;;;;;;5090536;28;20368;-69
2023/03/23 11:47:32;;;;;;;4.03;2.10;;;17.40;95.10;;;;;;5086402;28;20085;-69
2023/03/23 11:50:17;;;;;;;4.38;1.90;;;17.50;94.90;;;;;;5092986;28;20042;-69
2023/03/23 11:53:08;;;;;;;2.92;1.80;;;17.50;94.80;;;;;;5097419;28;20039;-70
2023/03/23 11:55:55;;;;;;;4.28;2.20;;;17.60;94.80;;;;;;5103000;28;20383;-71
2023/03/23 11:58:22;;;;;;;4.18;1.80;;;17.60;94.60;;;;;;5099917;28;21010;-71
2023/03/23 12:00:57;;;;;;;2.50;1.80;;;17.60;94.40;;;;;;5096818;28;20444;-71
2023/03/23 12:03:46;;;;;;;3.92;1.90;;;17.70;94.40;;;;;;5078829;28;20100;-70
2023/03/23 12:06:19;;;;;;;5.03;2.08;;;17.70;94.30;;;;;;5058241;27;20419;-71
2023/03/23 12:08:50;;;;;;;4.57;2.30;;;17.80;94.20;;;;;;5086259;28;20063;-70
2023/03/23 12:11:55;;;;;;;5.45;2.25;;;17.80;94.10;;;;;;5092029;28;20395;-70
2023/03/23 12:14:32;;;;;;;3.65;1.80;;;17.90;94.20;;;;;;5090845;28;20039;-70
2023/03/23 12:17:01;;;;;;;3.10;1.55;;;17.90;94.00;;;;;;5088674;28;20348;-70
2023/03/23 12:19:34;;;;;;;3.25;1.75;;;17.90;93.80;;;;;;5089018;28;20471;-70
2023/03/23 12:22:36;;;;;;;3.67;1.58;;;17.90;93.60;;;;;;5095917;28;20462;-70
2023/03/23 12:25:20;;;;;;;3.22;1.98;;;17.90;93.70;;;;;;5003202;28;20563;-70
2023/03/23 12:27:59;;;;;;;3.00;1.80;;;17.90;93.50;;;;;;5091226;28;20399;-70
2023/03/23 12:30:48;;;;;;;4.65;2.00;;;17.90;93.40;;;;;;5101594;28;20048;-70
2023/03/23 12:33:46;;;;;;;3.65;1.60;;;18.00;93.40;;;;;;5078919;28;20401;-70
2023/03/23 12:36:31;;;;;;;3.85;1.90;;;18.00;93.40;;;;;;5088312;28;20123;-71
2023/03/23 12:39:05;;;;;;;4.00;1.90;;;18.00;93.30;;;;;;5102041;28;20420;-71
2023/03/23 12:41:41;;;;;;;4.75;1.95;;;18.10;93.20;;;;;;5098022;28;20111;-71
2023/03/23 12:44:11;;;;;;;4.45;1.70;;;18.00;93.20;;;;;;5098859;28;20032;-70
2023/03/23 12:47:03;;;;;;;5.43;2.40;;;18.10;92.90;;;;;;5107301;28;20034;-70
2023/03/23 12:49:41;;;;;;;4.88;2.10;;;18.10;92.80;;;;;;5102579;28;20023;-70
2023/03/23 12:52:28;;;;;;;8.88;2.30;;;18.10;92.80;;;;;;5098129;28;20111;-71
2023/03/23 12:55:05;;;;;;;4.50;1.90;;;18.10;92.90;;;;;;5095751;28;20032;-71
2023/03/23 12:57:42;;;;;;;3.70;1.73;;;18.10;92.70;;;;;;5083714;28;20552;-70
2023/03/23 13:00:34;;;;;;;2.42;1.85;;;18.10;92.60;;;;;;5094017;28;20410;-71
2023/03/23 13:03:17;;;;;;;4.40;2.10;;;18.20;92.60;;;;;;5098917;28;20043;-70
2023/03/23 13:05:54;;;;;;;4.65;2.10;;;18.30;92.50;;;;;;5098944;28;20458;-71
2023/03/23 13:08:27;;;;;;;5.65;2.20;;;18.30;92.30;;;;;;5092585;28;20036;-71